METAR Data

Data at: 2200 UTC 26 Feb 2020

METAR for:KAUG (Augusta/State Arpt, ME, US)
Text:KAUG 262153Z AUTO 02006KT 10SM OVC075 05/M03 A3002 RMK AO2 SLP168 T00501033
Temperature: 5.0°C ( 41°F)
Dewpoint: -3.3°C ( 26°F) [RH = 55%]
Pressure (altimeter):30.02 inches Hg (1016.7 mb) [Sea level pressure: 1016.8 mb]
Winds:from the NNE (20 degrees) at 7 MPH (6 knots; 3.1 m/s)
Visibility:10 or more sm (16+ km)
Ceiling:7500 feet AGL
Clouds: overcast cloud deck at 7500 feet AGL
QC Flag:automated observation with no human augmentation